sensor_id;sensor_type;location;lat;lon;timestamp;pressure;altitude;pressure_sealevel;temperature;humidity
75852;BME280;64500;52.632;20.656;2023-04-04T00:00:34;101374.02;;;-3.18;72.09
75852;BME280;64500;52.632;20.656;2023-04-04T00:03:13;101369.14;;;-3.23;72.32
75852;BME280;64500;52.632;20.656;2023-04-04T00:05:40;101366.16;;;-3.27;72.33
75852;BME280;64500;52.632;20.656;2023-04-04T00:08:07;101363.84;;;-3.32;72.36
75852;BME280;64500;52.632;20.656;2023-04-04T00:10:34;101363.84;;;-3.36;72.64
75852;BME280;64500;52.632;20.656;2023-04-04T00:13:01;101360.38;;;-3.36;72.84
75852;BME280;64500;52.632;20.656;2023-04-04T00:15:28;101358.59;;;-3.38;73.06
75852;BME280;64500;52.632;20.656;2023-04-04T00:17:55;101354.60;;;-3.41;73.18
75852;BME280;64500;52.632;20.656;2023-04-04T00:20:22;101351.39;;;-3.47;73.11
75852;BME280;64500;52.632;20.656;2023-04-04T00:22:49;101351.38;;;-3.51;73.40
75852;BME280;64500;52.632;20.656;2023-04-04T00:25:16;101345.20;;;-3.57;73.31
75852;BME280;64500;52.632;20.656;2023-04-04T00:27:43;101344.84;;;-3.65;73.37
75852;BME280;64500;52.632;20.656;2023-04-04T00:30:10;101342.82;;;-3.67;73.82
75852;BME280;64500;52.632;20.656;2023-04-04T00:32:37;101341.16;;;-3.66;73.96
75852;BME280;64500;52.632;20.656;2023-04-04T00:35:05;101342.16;;;-3.66;74.18
75852;BME280;64500;52.632;20.656;2023-04-04T00:37:32;101339.77;;;-3.66;74.42
75852;BME280;64500;52.632;20.656;2023-04-04T00:39:59;101340.55;;;-3.68;74.38
75852;BME280;64500;52.632;20.656;2023-04-04T00:42:27;101340.97;;;-3.70;74.45
75852;BME280;64500;52.632;20.656;2023-04-04T00:44:54;101337.16;;;-3.73;74.30
75852;BME280;64500;52.632;20.656;2023-04-04T00:47:21;101337.84;;;-3.77;74.43
75852;BME280;64500;52.632;20.656;2023-04-04T00:49:50;101336.38;;;-3.79;74.47
75852;BME280;64500;52.632;20.656;2023-04-04T00:52:16;101332.70;;;-3.84;74.59
75852;BME280;64500;52.632;20.656;2023-04-04T00:54:43;101332.55;;;-3.90;74.33
75852;BME280;64500;52.632;20.656;2023-04-04T00:57:10;101326.85;;;-3.94;74.56
75852;BME280;64500;52.632;20.656;2023-04-04T00:59:38;101325.23;;;-3.98;74.43
75852;BME280;64500;52.632;20.656;2023-04-04T01:02:05;101322.17;;;-4.05;74.43
75852;BME280;64500;52.632;20.656;2023-04-04T01:04:32;101317.17;;;-4.07;74.85
75852;BME280;64500;52.632;20.656;2023-04-04T01:06:59;101311.50;;;-4.10;74.93
75852;BME280;64500;52.632;20.656;2023-04-04T01:09:28;101311.20;;;-4.13;74.93
75852;BME280;64500;52.632;20.656;2023-04-04T01:11:55;101305.75;;;-4.18;74.98
75852;BME280;64500;52.632;20.656;2023-04-04T01:14:23;101302.05;;;-4.20;75.35
75852;BME280;64500;52.632;20.656;2023-04-04T01:16:50;101301.47;;;-4.25;75.23
75852;BME280;64500;52.632;20.656;2023-04-04T01:19:27;101297.09;;;-4.30;75.34
75852;BME280;64500;52.632;20.656;2023-04-04T01:21:59;101297.42;;;-4.33;75.34
75852;BME280;64500;52.632;20.656;2023-04-04T01:24:32;101295.50;;;-4.37;75.59
75852;BME280;64500;52.632;20.656;2023-04-04T01:26:59;101294.28;;;-4.41;75.88
75852;BME280;64500;52.632;20.656;2023-04-04T01:29:26;101287.46;;;-4.42;75.82
75852;BME280;64500;52.632;20.656;2023-04-04T01:32:03;101288.58;;;-4.44;76.09
75852;BME280;64500;52.632;20.656;2023-04-04T01:34:52;101287.08;;;-4.47;75.84
75852;BME280;64500;52.632;20.656;2023-04-04T01:40:16;101280.06;;;-4.52;76.10
75852;BME280;64500;52.632;20.656;2023-04-04T01:42:44;101275.43;;;-4.55;76.19
75852;BME280;64500;52.632;20.656;2023-04-04T01:45:11;101280.64;;;-4.58;76.30
75852;BME280;64500;52.632;20.656;2023-04-04T01:47:39;101276.59;;;-4.59;76.48
75852;BME280;64500;52.632;20.656;2023-04-04T01:50:08;101279.36;;;-4.59;76.82
75852;BME280;64500;52.632;20.656;2023-04-04T01:52:36;101280.36;;;-4.60;76.81
75852;BME280;64500;52.632;20.656;2023-04-04T01:55:04;101278.11;;;-4.60;76.95
75852;BME280;64500;52.632;20.656;2023-04-04T01:57:31;101281.02;;;-4.60;77.03
75852;BME280;64500;52.632;20.656;2023-04-04T01:59:58;101282.14;;;-4.59;77.21
75852;BME280;64500;52.632;20.656;2023-04-04T02:02:25;101279.84;;;-4.57;77.07
75852;BME280;64500;52.632;20.656;2023-04-04T02:04:52;101277.73;;;-4.60;76.97
75852;BME280;64500;52.632;20.656;2023-04-04T02:07:19;101273.56;;;-4.64;77.11
75852;BME280;64500;52.632;20.656;2023-04-04T02:09:46;101277.65;;;-4.65;77.27
75852;BME280;64500;52.632;20.656;2023-04-04T02:12:13;101274.54;;;-4.66;77.44
75852;BME280;64500;52.632;20.656;2023-04-04T02:14:40;101273.65;;;-4.66;77.26
75852;BME280;64500;52.632;20.656;2023-04-04T02:17:07;101271.08;;;-4.70;77.50
75852;BME280;64500;52.632;20.656;2023-04-04T02:19:33;101267.08;;;-4.70;77.51
75852;BME280;64500;52.632;20.656;2023-04-04T02:22:01;101267.59;;;-4.70;77.85
75852;BME280;64500;52.632;20.656;2023-04-04T02:24:28;101264.02;;;-4.69;77.82
75852;BME280;64500;52.632;20.656;2023-04-04T02:26:55;101262.64;;;-4.69;77.87
75852;BME280;64500;52.632;20.656;2023-04-04T02:29:22;101263.05;;;-4.68;77.88
75852;BME280;64500;52.632;20.656;2023-04-04T02:31:49;101260.78;;;-4.72;77.62
75852;BME280;64500;52.632;20.656;2023-04-04T02:34:16;101260.07;;;-4.76;77.55
75852;BME280;64500;52.632;20.656;2023-04-04T02:36:43;101261.17;;;-4.81;77.67
75852;BME280;64500;52.632;20.656;2023-04-04T02:39:10;101265.09;;;-4.82;77.96
75852;BME280;64500;52.632;20.656;2023-04-04T02:41:37;101265.10;;;-4.81;77.85
75852;BME280;64500;52.632;20.656;2023-04-04T02:44:04;101267.92;;;-4.84;77.79
75852;BME280;64500;52.632;20.656;2023-04-04T02:46:31;101270.85;;;-4.91;77.48
75852;BME280;64500;52.632;20.656;2023-04-04T02:48:58;101267.29;;;-4.92;77.72
75852;BME280;64500;52.632;20.656;2023-04-04T02:51:27;101268.05;;;-4.98;77.56
75852;BME280;64500;52.632;20.656;2023-04-04T02:53:54;101265.59;;;-5.02;77.50
75852;BME280;64500;52.632;20.656;2023-04-04T02:56:21;101266.03;;;-5.06;77.67
75852;BME280;64500;52.632;20.656;2023-04-04T02:58:48;101263.58;;;-5.11;77.72
75852;BME280;64500;52.632;20.656;2023-04-04T03:01:15;101262.98;;;-5.16;77.66
75852;BME280;64500;52.632;20.656;2023-04-04T03:03:41;101259.14;;;-5.23;77.55
75852;BME280;64500;52.632;20.656;2023-04-04T03:06:08;101257.52;;;-5.24;77.79
75852;BME280;64500;52.632;20.656;2023-04-04T03:08:35;101254.58;;;-5.25;78.22
75852;BME280;64500;52.632;20.656;2023-04-04T03:11:02;101254.96;;;-5.24;78.22
75852;BME280;64500;52.632;20.656;2023-04-04T03:13:29;101257.59;;;-5.26;78.19
75852;BME280;64500;52.632;20.656;2023-04-04T03:16:03;101262.44;;;-5.29;78.11
75852;BME280;64500;52.632;20.656;2023-04-04T03:18:34;101266.47;;;-5.34;77.98
75852;BME280;64500;52.632;20.656;2023-04-04T03:21:01;101266.68;;;-5.40;77.92
75852;BME280;64500;52.632;20.656;2023-04-04T03:23:28;101269.88;;;-5.41;78.44
75852;BME280;64500;52.632;20.656;2023-04-04T03:25:55;101270.11;;;-5.43;78.26
75852;BME280;64500;52.632;20.656;2023-04-04T03:28:22;101272.27;;;-5.44;78.47
75852;BME280;64500;52.632;20.656;2023-04-04T03:30:49;101272.27;;;-5.45;78.56
75852;BME280;64500;52.632;20.656;2023-04-04T03:33:16;101270.56;;;-5.44;78.78
75852;BME280;64500;52.632;20.656;2023-04-04T03:35:43;101265.02;;;-5.45;78.49
75852;BME280;64500;52.632;20.656;2023-04-04T03:38:10;101269.05;;;-5.50;78.45
75852;BME280;64500;52.632;20.656;2023-04-04T03:40:37;101264.39;;;-5.60;78.05
75852;BME280;64500;52.632;20.656;2023-04-04T03:43:07;101268.29;;;-5.70;77.97
75852;BME280;64500;52.632;20.656;2023-04-04T03:45:34;101271.92;;;-5.82;77.63
75852;BME280;64500;52.632;20.656;2023-04-04T03:48:04;101269.28;;;-5.93;77.68
75852;BME280;64500;52.632;20.656;2023-04-04T03:50:31;101270.88;;;-6.02;77.57
75852;BME280;64500;52.632;20.656;2023-04-04T03:52:58;101273.58;;;-6.12;77.54
75852;BME280;64500;52.632;20.656;2023-04-04T03:55:25;101272.77;;;-6.17;77.66
75852;BME280;64500;52.632;20.656;2023-04-04T03:57:52;101275.36;;;-6.23;77.95
75852;BME280;64500;52.632;20.656;2023-04-04T04:00:19;101274.13;;;-6.23;78.33
75852;BME280;64500;52.632;20.656;2023-04-04T04:02:46;101275.27;;;-6.12;79.19
75852;BME280;64500;52.632;20.656;2023-04-04T04:05:13;101275.19;;;-5.98;79.93
75852;BME280;64500;52.632;20.656;2023-04-04T04:07:42;101275.25;;;-5.87;79.99
75852;BME280;64500;52.632;20.656;2023-04-04T04:10:10;101271.25;;;-5.82;79.87
75852;BME280;64500;52.632;20.656;2023-04-04T04:12:39;101269.34;;;-5.73;80.55
75852;BME280;64500;52.632;20.656;2023-04-04T04:15:06;101267.14;;;-5.63;80.76
75852;BME280;64500;52.632;20.656;2023-04-04T04:17:33;101270.94;;;-5.60;80.53
75852;BME280;64500;52.632;20.656;2023-04-04T04:20:00;101269.68;;;-5.54;80.72
75852;BME280;64500;52.632;20.656;2023-04-04T04:22:27;101265.04;;;-5.51;80.54
75852;BME280;64500;52.632;20.656;2023-04-04T04:24:54;101267.55;;;-5.46;80.61
75852;BME280;64500;52.632;20.656;2023-04-04T04:27:20;101267.55;;;-5.43;80.14
75852;BME280;64500;52.632;20.656;2023-04-04T04:29:47;101264.55;;;-5.41;80.00
75852;BME280;64500;52.632;20.656;2023-04-04T04:32:16;101263.75;;;-5.33;80.65
75852;BME280;64500;52.632;20.656;2023-04-04T04:34:43;101263.20;;;-5.18;80.84
75852;BME280;64500;52.632;20.656;2023-04-04T04:37:10;101264.95;;;-5.08;80.81
75852;BME280;64500;52.632;20.656;2023-04-04T04:39:37;101261.79;;;-4.96;80.86
75852;BME280;64500;52.632;20.656;2023-04-04T04:42:04;101261.86;;;-4.81;81.13
75852;BME280;64500;52.632;20.656;2023-04-04T04:44:32;101259.52;;;-4.66;81.08
75852;BME280;64500;52.632;20.656;2023-04-04T04:46:59;101258.08;;;-4.50;80.81
75852;BME280;64500;52.632;20.656;2023-04-04T04:49:26;101262.11;;;-4.35;81.00
75852;BME280;64500;52.632;20.656;2023-04-04T04:51:53;101261.54;;;-4.18;80.63
75852;BME280;64500;52.632;20.656;2023-04-04T04:54:20;101261.58;;;-3.97;80.79
75852;BME280;64500;52.632;20.656;2023-04-04T04:56:47;101266.88;;;-3.72;80.55
75852;BME280;64500;52.632;20.656;2023-04-04T04:59:13;101267.59;;;-3.54;80.24
75852;BME280;64500;52.632;20.656;2023-04-04T05:01:41;101264.13;;;-3.39;79.95
75852;BME280;64500;52.632;20.656;2023-04-04T05:04:08;101261.22;;;-3.27;79.71
75852;BME280;64500;52.632;20.656;2023-04-04T05:06:35;101258.45;;;-3.16;79.42
75852;BME280;64500;52.632;20.656;2023-04-04T05:09:04;101255.85;;;-3.04;79.42
75852;BME280;64500;52.632;20.656;2023-04-04T05:11:30;101257.82;;;-2.91;79.01
75852;BME280;64500;52.632;20.656;2023-04-04T05:13:57;101257.48;;;-2.79;78.95
75852;BME280;64500;52.632;20.656;2023-04-04T05:16:24;101259.92;;;-2.67;78.63
75852;BME280;64500;52.632;20.656;2023-04-04T05:18:51;101256.66;;;-2.58;78.50
75852;BME280;64500;52.632;20.656;2023-04-04T05:21:18;101257.86;;;-2.50;78.21
75852;BME280;64500;52.632;20.656;2023-04-04T05:23:45;101259.59;;;-2.46;77.89
75852;BME280;64500;52.632;20.656;2023-04-04T05:26:13;101258.14;;;-2.39;77.81
75852;BME280;64500;52.632;20.656;2023-04-04T05:28:40;101256.31;;;-2.34;77.51
75852;BME280;64500;52.632;20.656;2023-04-04T05:31:09;101260.13;;;-2.29;77.34
75852;BME280;64500;52.632;20.656;2023-04-04T05:33:36;101258.83;;;-2.28;76.74
75852;BME280;64500;52.632;20.656;2023-04-04T05:36:03;101260.31;;;-2.29;76.67
75852;BME280;64500;52.632;20.656;2023-04-04T05:38:30;101261.73;;;-2.32;76.60
75852;BME280;64500;52.632;20.656;2023-04-04T05:40:57;101260.80;;;-2.34;76.72
75852;BME280;64500;52.632;20.656;2023-04-04T05:43:23;101255.52;;;-2.36;76.43
75852;BME280;64500;52.632;20.656;2023-04-04T05:45:50;101256.29;;;-2.38;76.50
75852;BME280;64500;52.632;20.656;2023-04-04T05:48:17;101265.15;;;-2.37;76.40
75852;BME280;64500;52.632;20.656;2023-04-04T05:50:44;101263.44;;;-2.37;76.45
75852;BME280;64500;52.632;20.656;2023-04-04T05:53:13;101261.10;;;-2.35;76.50
75852;BME280;64500;52.632;20.656;2023-04-04T05:55:39;101261.14;;;-2.30;76.32
75852;BME280;64500;52.632;20.656;2023-04-04T05:58:06;101260.27;;;-2.26;76.11
75852;BME280;64500;52.632;20.656;2023-04-04T06:00:33;101259.36;;;-2.23;76.17
75852;BME280;64500;52.632;20.656;2023-04-04T06:03:01;101260.27;;;-2.18;76.02
75852;BME280;64500;52.632;20.656;2023-04-04T06:05:28;101261.23;;;-2.11;76.08
75852;BME280;64500;52.632;20.656;2023-04-04T06:07:55;101259.04;;;-2.05;75.92
75852;BME280;64500;52.632;20.656;2023-04-04T06:10:22;101256.23;;;-2.02;75.75
75852;BME280;64500;52.632;20.656;2023-04-04T06:12:49;101254.36;;;-1.97;75.49
75852;BME280;64500;52.632;20.656;2023-04-04T06:15:17;101253.10;;;-1.93;75.43
75852;BME280;64500;52.632;20.656;2023-04-04T06:17:44;101253.86;;;-1.88;75.48
75852;BME280;64500;52.632;20.656;2023-04-04T06:20:11;101254.42;;;-1.83;75.22
75852;BME280;64500;52.632;20.656;2023-04-04T06:22:38;101257.79;;;-1.76;75.29
75852;BME280;64500;52.632;20.656;2023-04-04T06:25:05;101251.06;;;-1.71;75.09
75852;BME280;64500;52.632;20.656;2023-04-04T06:27:32;101253.18;;;-1.65;75.03
75852;BME280;64500;52.632;20.656;2023-04-04T06:29:59;101247.67;;;-1.55;75.45
75852;BME280;64500;52.632;20.656;2023-04-04T06:32:26;101247.73;;;-1.40;75.31
75852;BME280;64500;52.632;20.656;2023-04-04T06:34:53;101253.89;;;-1.29;75.08
75852;BME280;64500;52.632;20.656;2023-04-04T06:37:20;101253.42;;;-1.23;74.77
75852;BME280;64500;52.632;20.656;2023-04-04T06:39:47;101254.27;;;-1.24;74.46
75852;BME280;64500;52.632;20.656;2023-04-04T06:42:14;101251.42;;;-1.25;74.25
75852;BME280;64500;52.632;20.656;2023-04-04T06:44:41;101257.40;;;-1.23;74.16
75852;BME280;64500;52.632;20.656;2023-04-04T06:47:08;101255.96;;;-1.20;74.02
75852;BME280;64500;52.632;20.656;2023-04-04T06:49:35;101255.73;;;-1.12;73.92
75852;BME280;64500;52.632;20.656;2023-04-04T06:52:04;101250.09;;;-1.00;73.93
75852;BME280;64500;52.632;20.656;2023-04-04T06:54:31;101251.45;;;-0.91;73.43
75852;BME280;64500;52.632;20.656;2023-04-04T06:56:58;101248.48;;;-0.77;73.47
75852;BME280;64500;52.632;20.656;2023-04-04T06:59:25;101249.40;;;-0.61;73.27
75852;BME280;64500;52.632;20.656;2023-04-04T07:01:53;101250.80;;;-0.46;72.98
75852;BME280;64500;52.632;20.656;2023-04-04T07:04:20;101252.50;;;-0.27;73.30
75852;BME280;64500;52.632;20.656;2023-04-04T07:06:47;101252.39;;;-0.09;72.70
75852;BME280;64500;52.632;20.656;2023-04-04T07:09:14;101252.42;;;-0.03;72.02
75852;BME280;64500;52.632;20.656;2023-04-04T07:11:40;101247.64;;;-0.06;71.70
75852;BME280;64500;52.632;20.656;2023-04-04T07:14:07;101249.46;;;-0.13;71.87
75852;BME280;64500;52.632;20.656;2023-04-04T07:16:34;101251.27;;;-0.16;71.88
75852;BME280;64500;52.632;20.656;2023-04-04T07:19:02;101251.52;;;-0.14;71.78
75852;BME280;64500;52.632;20.656;2023-04-04T07:21:29;101255.73;;;-0.08;71.35
75852;BME280;64500;52.632;20.656;2023-04-04T07:23:56;101251.00;;;-0.03;71.43
75852;BME280;64500;52.632;20.656;2023-04-04T07:26:22;101252.91;;;0.02;71.42
75852;BME280;64500;52.632;20.656;2023-04-04T07:28:49;101250.22;;;0.05;71.20
75852;BME280;64500;52.632;20.656;2023-04-04T07:31:16;101254.69;;;0.08;71.09
75852;BME280;64500;52.632;20.656;2023-04-04T07:33:43;101248.39;;;0.07;71.12
75852;BME280;64500;52.632;20.656;2023-04-04T07:36:10;101253.80;;;0.08;70.22
75852;BME280;64500;52.632;20.656;2023-04-04T07:38:37;101250.48;;;0.02;69.83
75852;BME280;64500;52.632;20.656;2023-04-04T07:41:04;101246.27;;;0.06;70.07
75852;BME280;64500;52.632;20.656;2023-04-04T07:43:31;101251.70;;;0.13;70.29
75852;BME280;64500;52.632;20.656;2023-04-04T07:45:58;101253.42;;;0.17;68.76
75852;BME280;64500;52.632;20.656;2023-04-04T07:48:24;101244.23;;;0.29;68.96
75852;BME280;64500;52.632;20.656;2023-04-04T07:50:53;101237.31;;;0.53;68.78
75852;BME280;64500;52.632;20.656;2023-04-04T07:53:20;101235.66;;;0.74;68.67
75852;BME280;64500;52.632;20.656;2023-04-04T07:55:47;101233.05;;;0.92;68.12
75852;BME280;64500;52.632;20.656;2023-04-04T07:58:14;101227.20;;;1.13;68.29
75852;BME280;64500;52.632;20.656;2023-04-04T08:00:41;101225.08;;;1.31;67.57
75852;BME280;64500;52.632;20.656;2023-04-04T08:03:07;101223.38;;;1.39;66.99
75852;BME280;64500;52.632;20.656;2023-04-04T08:05:34;101221.86;;;1.48;65.92
75852;BME280;64500;52.632;20.656;2023-04-04T08:08:01;101220.85;;;1.56;66.21
75852;BME280;64500;52.632;20.656;2023-04-04T08:10:28;101220.25;;;1.73;65.38
75852;BME280;64500;52.632;20.656;2023-04-04T08:12:55;101222.27;;;1.78;63.91
75852;BME280;64500;52.632;20.656;2023-04-04T08:15:24;101214.72;;;1.61;63.01
75852;BME280;64500;52.632;20.656;2023-04-04T08:17:51;101213.02;;;1.56;62.86
75852;BME280;64500;52.632;20.656;2023-04-04T08:20:19;101216.45;;;1.68;62.88
75852;BME280;64500;52.632;20.656;2023-04-04T08:22:45;101209.69;;;1.90;63.72
75852;BME280;64500;52.632;20.656;2023-04-04T08:25:12;101210.52;;;2.10;63.10
75852;BME280;64500;52.632;20.656;2023-04-04T08:27:40;101206.81;;;2.23;62.32
75852;BME280;64500;52.632;20.656;2023-04-04T08:30:11;101206.73;;;2.36;62.13
75852;BME280;64500;52.632;20.656;2023-04-04T08:32:38;101200.44;;;2.51;61.22
75852;BME280;64500;52.632;20.656;2023-04-04T08:35:05;101203.12;;;2.54;57.90
75852;BME280;64500;52.632;20.656;2023-04-04T08:37:33;101205.86;;;2.52;56.35
75852;BME280;64500;52.632;20.656;2023-04-04T08:40:02;101190.72;;;2.62;56.61
75852;BME280;64500;52.632;20.656;2023-04-04T08:42:32;101197.76;;;2.81;56.46
75852;BME280;64500;52.632;20.656;2023-04-04T08:45:06;101189.03;;;2.90;57.45
75852;BME280;64500;52.632;20.656;2023-04-04T08:47:36;101191.74;;;3.03;57.20
75852;BME280;64500;52.632;20.656;2023-04-04T08:50:05;101192.71;;;3.27;56.43
75852;BME280;64500;52.632;20.656;2023-04-04T08:52:33;101195.17;;;3.27;55.56
75852;BME280;64500;52.632;20.656;2023-04-04T08:55:04;101199.10;;;3.05;54.83
75852;BME280;64500;52.632;20.656;2023-04-04T08:57:31;101188.12;;;2.71;55.49
75852;BME280;64500;52.632;20.656;2023-04-04T08:59:59;101185.48;;;2.45;55.83
75852;BME280;64500;52.632;20.656;2023-04-04T09:02:30;101186.95;;;2.40;56.14
75852;BME280;64500;52.632;20.656;2023-04-04T09:04:59;101184.53;;;2.50;56.55
75852;BME280;64500;52.632;20.656;2023-04-04T09:07:28;101185.23;;;2.75;57.18
75852;BME280;64500;52.632;20.656;2023-04-04T09:09:56;101188.79;;;3.05;56.21
75852;BME280;64500;52.632;20.656;2023-04-04T09:12:24;101191.33;;;3.09;53.56
75852;BME280;64500;52.632;20.656;2023-04-04T09:14:52;101190.67;;;2.94;53.01
75852;BME280;64500;52.632;20.656;2023-04-04T09:17:20;101183.61;;;2.99;54.24
75852;BME280;64500;52.632;20.656;2023-04-04T09:19:48;101179.67;;;3.22;55.33
75852;BME280;64500;52.632;20.656;2023-04-04T09:22:15;101187.05;;;3.74;55.25
75852;BME280;64500;52.632;20.656;2023-04-04T09:24:43;101178.92;;;4.25;54.93
75852;BME280;64500;52.632;20.656;2023-04-04T09:27:11;101179.05;;;4.47;53.73
75852;BME280;64500;52.632;20.656;2023-04-04T09:29:39;101183.92;;;4.33;53.24
75852;BME280;64500;52.632;20.656;2023-04-04T09:32:16;101191.08;;;4.19;53.41
75852;BME280;64500;52.632;20.656;2023-04-04T09:34:47;101189.89;;;4.09;53.35
75852;BME280;64500;52.632;20.656;2023-04-04T09:37:15;101183.73;;;4.06;53.02
75852;BME280;64500;52.632;20.656;2023-04-04T09:39:43;101184.86;;;4.12;53.08
75852;BME280;64500;52.632;20.656;2023-04-04T09:42:10;101192.85;;;4.19;52.48
75852;BME280;64500;52.632;20.656;2023-04-04T09:44:38;101184.88;;;4.24;53.63
75852;BME280;64500;52.632;20.656;2023-04-04T09:47:27;101187.49;;;4.37;53.68
75852;BME280;64500;52.632;20.656;2023-04-04T09:49:59;101193.95;;;4.35;52.88
75852;BME280;64500;52.632;20.656;2023-04-04T09:52:30;101196.14;;;4.05;52.33
75852;BME280;64500;52.632;20.656;2023-04-04T09:55:07;101191.29;;;3.65;52.83
75852;BME280;64500;52.632;20.656;2023-04-04T09:57:34;101189.94;;;3.68;53.72
75852;BME280;64500;52.632;20.656;2023-04-04T10:00:05;101182.20;;;3.87;53.03
75852;BME280;64500;52.632;20.656;2023-04-04T10:02:36;101180.56;;;3.93;53.18
75852;BME280;64500;52.632;20.656;2023-04-04T10:05:07;101187.16;;;3.80;51.55
75852;BME280;64500;52.632;20.656;2023-04-04T10:07:38;101187.66;;;3.57;51.21
75852;BME280;64500;52.632;20.656;2023-04-04T10:10:06;101188.02;;;3.58;52.31
75852;BME280;64500;52.632;20.656;2023-04-04T10:12:37;101183.73;;;3.62;51.71
75852;BME280;64500;52.632;20.656;2023-04-04T10:15:05;101184.47;;;3.65;51.12
75852;BME280;64500;52.632;20.656;2023-04-04T10:17:39;101178.10;;;3.82;51.75
75852;BME280;64500;52.632;20.656;2023-04-04T10:20:08;101171.52;;;3.86;52.19
75852;BME280;64500;52.632;20.656;2023-04-04T10:22:36;101183.11;;;3.67;51.35
75852;BME280;64500;52.632;20.656;2023-04-04T10:25:05;101179.43;;;3.47;52.26
75852;BME280;64500;52.632;20.656;2023-04-04T10:27:33;101176.41;;;3.24;51.65
75852;BME280;64500;52.632;20.656;2023-04-04T10:30:00;101176.79;;;2.97;51.66
75852;BME280;64500;52.632;20.656;2023-04-04T10:32:47;101180.52;;;2.74;52.29
75852;BME280;64500;52.632;20.656;2023-04-04T10:35:18;101180.55;;;2.52;52.70
75852;BME280;64500;52.632;20.656;2023-04-04T10:37:53;101180.90;;;2.35;53.26
75852;BME280;64500;52.632;20.656;2023-04-04T10:40:25;101179.98;;;2.25;53.59
75852;BME280;64500;52.632;20.656;2023-04-04T10:42:55;101181.55;;;2.25;54.15
75852;BME280;64500;52.632;20.656;2023-04-04T10:45:24;101178.05;;;2.41;54.31
75852;BME280;64500;52.632;20.656;2023-04-04T10:47:53;101178.11;;;2.60;53.32
75852;BME280;64500;52.632;20.656;2023-04-04T10:50:20;101171.53;;;2.79;53.42
75852;BME280;64500;52.632;20.656;2023-04-04T10:52:47;101177.09;;;2.95;53.39
75852;BME280;64500;52.632;20.656;2023-04-04T10:55:14;101178.61;;;2.93;52.65
75852;BME280;64500;52.632;20.656;2023-04-04T10:57:45;101174.99;;;2.78;52.02
75852;BME280;64500;52.632;20.656;2023-04-04T11:00:14;101171.62;;;2.67;52.46
75852;BME280;64500;52.632;20.656;2023-04-04T11:05:36;101166.05;;;2.85;53.03
75852;BME280;64500;52.632;20.656;2023-04-04T11:08:10;101168.84;;;3.11;52.71
75852;BME280;64500;52.632;20.656;2023-04-04T11:10:43;101163.17;;;3.27;52.46
75852;BME280;64500;52.632;20.656;2023-04-04T11:13:18;101164.09;;;3.29;51.84
75852;BME280;64500;52.632;20.656;2023-04-04T11:18:19;101171.67;;;2.87;51.36
75852;BME280;64500;52.632;20.656;2023-04-04T11:20:47;101165.98;;;2.72;51.33
75852;BME280;64500;52.632;20.656;2023-04-04T11:23:17;101165.00;;;2.59;51.08
75852;BME280;64500;52.632;20.656;2023-04-04T11:25:53;101162.88;;;2.50;51.23
75852;BME280;64500;52.632;20.656;2023-04-04T11:28:42;101152.86;;;2.46;52.04
75852;BME280;64500;52.632;20.656;2023-04-04T11:31:34;101157.34;;;2.51;52.55
75852;BME280;64500;52.632;20.656;2023-04-04T11:34:05;101156.52;;;2.53;52.24
75852;BME280;64500;52.632;20.656;2023-04-04T11:39:08;101148.48;;;2.62;51.88
75852;BME280;64500;52.632;20.656;2023-04-04T11:44:22;101151.60;;;3.24;52.27
75852;BME280;64500;52.632;20.656;2023-04-04T11:47:09;101149.50;;;3.54;52.23
75852;BME280;64500;52.632;20.656;2023-04-04T11:49:38;101149.59;;;3.82;51.38
75852;BME280;64500;52.632;20.656;2023-04-04T11:52:16;101157.80;;;3.82;49.60
75852;BME280;64500;52.632;20.656;2023-04-04T11:54:45;101150.89;;;3.65;48.58
75852;BME280;64500;52.632;20.656;2023-04-04T11:57:14;101146.02;;;3.55;49.81
75852;BME280;64500;52.632;20.656;2023-04-04T11:59:43;101143.52;;;3.51;49.52
75852;BME280;64500;52.632;20.656;2023-04-04T12:02:12;101146.54;;;3.44;49.39
75852;BME280;64500;52.632;20.656;2023-04-04T12:04:40;101144.90;;;3.41;49.70
75852;BME280;64500;52.632;20.656;2023-04-04T12:07:10;101137.19;;;3.50;50.21
75852;BME280;64500;52.632;20.656;2023-04-04T12:09:44;101140.88;;;3.62;50.07
75852;BME280;64500;52.632;20.656;2023-04-04T12:12:12;101143.87;;;3.73;49.54
75852;BME280;64500;52.632;20.656;2023-04-04T12:14:42;101143.60;;;3.80;48.53
75852;BME280;64500;52.632;20.656;2023-04-04T12:17:09;101136.54;;;3.86;48.76
75852;BME280;64500;52.632;20.656;2023-04-04T12:19:39;101128.27;;;4.06;50.08
75852;BME280;64500;52.632;20.656;2023-04-04T12:22:06;101131.25;;;4.18;49.02
75852;BME280;64500;52.632;20.656;2023-04-04T12:24:34;101129.33;;;4.19;48.59
75852;BME280;64500;52.632;20.656;2023-04-04T12:27:02;101124.63;;;4.21;48.85
75852;BME280;64500;52.632;20.656;2023-04-04T12:29:31;101118.18;;;4.23;48.51
75852;BME280;64500;52.632;20.656;2023-04-04T12:32:05;101124.40;;;4.17;48.86
75852;BME280;64500;52.632;20.656;2023-04-04T12:34:33;101126.85;;;4.17;48.89
75852;BME280;64500;52.632;20.656;2023-04-04T12:37:02;101130.08;;;4.23;48.70
75852;BME280;64500;52.632;20.656;2023-04-04T12:39:29;101125.02;;;4.24;48.25
75852;BME280;64500;52.632;20.656;2023-04-04T12:42:00;101124.20;;;4.15;48.30
75852;BME280;64500;52.632;20.656;2023-04-04T12:44:35;101125.18;;;3.98;48.46
75852;BME280;64500;52.632;20.656;2023-04-04T12:47:08;101119.02;;;3.84;48.70
75852;BME280;64500;52.632;20.656;2023-04-04T12:49:40;101114.52;;;3.88;49.14
75852;BME280;64500;52.632;20.656;2023-04-04T12:52:28;101117.48;;;3.97;48.41
75852;BME280;64500;52.632;20.656;2023-04-04T12:55:08;101121.84;;;4.09;47.75
75852;BME280;64500;52.632;20.656;2023-04-04T12:57:38;101115.98;;;4.03;47.42
75852;BME280;64500;52.632;20.656;2023-04-04T13:00:06;101110.60;;;4.07;47.76
75852;BME280;64500;52.632;20.656;2023-04-04T13:02:35;101109.03;;;4.19;47.38
75852;BME280;64500;52.632;20.656;2023-04-04T13:05:03;101102.66;;;4.27;47.76